Time;durP1;ratioP1;P1;durP2;ratioP2;P2;SDS_P1;SDS_P2;PMS_P1;PMS_P2;Temp;Humidity;BMP_temperature;BMP_pressure;BME280_temperature;BME280_humidity;BME280_pressure;Samples;Min_cycle;Max_cycle;Signal;HPM_P1;HPM_P2
2021/01/07 00:05:48;;;;;;;;;;;;;;;;;;;;;
2021/01/07 00:15:25;;;;;;;5.30;4.80;;;2.60;99.90;;;;;;5818563;24;20663;-84
2021/01/07 00:18:25;;;;;;;7.15;5.70;;;2.60;99.90;;;;;;5971418;24;20273;-84
2021/01/07 00:33:29;;;;;;;6.32;5.70;;;2.60;99.90;;;;;;6040897;23;20182;-86
2021/01/07 00:36:21;;;;;;;6.95;6.25;;;2.70;99.90;;;;;;6042774;23;20175;-85
2021/01/07 00:42:40;;;;;;;6.80;6.20;;;2.70;99.90;;;;;;6031362;23;20188;-85
2021/01/07 00:48:32;;;;;;;;;;;;;;;;;;;;;
2021/01/07 00:51:16;;;;;;;7.60;6.90;;;2.70;99.90;;;;;;6035079;23;20181;-85
2021/01/07 00:57:25;;;;;;;;;;;;;;;;;;;;;
2021/01/07 01:03:24;;;;;;;8.57;7.55;;;2.70;99.90;;;;;;5974950;23;20260;-85
2021/01/07 01:06:06;;;;;;;6.88;5.75;;;2.70;99.90;;;;;;6041419;23;20189;-85
2021/01/07 01:09:04;;;;;;;7.38;6.70;;;2.80;99.90;;;;;;6041455;23;20205;-85
2021/01/07 01:12:13;;;;;;;10.32;6.70;;;2.80;99.90;;;;;;6041464;23;20181;-85
2021/01/07 01:14:44;;;;;;;7.20;6.15;;;2.80;99.90;;;;;;6041450;23;20190;-85
2021/01/07 01:17:41;;;;;;;7.00;6.30;;;2.80;99.90;;;;;;6039860;23;20193;-85
2021/01/07 01:20:22;;;;;;;8.38;7.55;;;2.80;99.90;;;;;;6039736;23;20184;-86
2021/01/07 01:23:24;;;;;;;;;;;;;;;;;;;;;
2021/01/07 01:26:08;;;;;;;;;;;;;;;;;;;;;
2021/01/07 01:28:55;;;;;;;7.13;6.43;;;2.80;99.90;;;;;;6039346;23;20761;-85
2021/01/07 01:34:37;;;;;;;;;;;;;;;;;;;;;
2021/01/07 01:37:16;;;;;;;10.10;7.82;;;2.90;99.90;;;;;;6040055;23;20281;-86
2021/01/07 01:39:53;;;;;;;7.93;7.05;;;2.90;99.90;;;;;;6040522;23;20174;-85
2021/01/07 01:42:28;;;;;;;7.32;6.55;;;2.90;99.90;;;;;;6039981;23;20257;-85
2021/01/07 01:45:01;;;;;;;7.15;6.45;;;2.90;99.90;;;;;;6040287;23;20606;-85
2021/01/07 01:47:38;;;;;;;6.78;6.13;;;2.90;99.90;;;;;;6040336;23;20266;-85
2021/01/07 01:50:20;;;;;;;6.57;5.95;;;2.90;99.90;;;;;;6040319;23;20170;-85
2021/01/07 01:52:54;;;;;;;8.48;7.65;;;2.90;99.90;;;;;;6035677;23;20182;-85
2021/01/07 01:55:23;;;;;;;7.53;6.80;;;2.90;99.90;;;;;;6040814;23;20524;-85
2021/01/07 01:57:57;;;;;;;7.55;6.57;;;2.90;99.90;;;;;;6039930;23;20202;-84
2021/01/07 02:00:44;;;;;;;7.72;6.07;;;2.90;99.90;;;;;;6040016;23;20169;-84
2021/01/07 02:03:12;;;;;;;6.35;5.85;;;2.80;99.90;;;;;;6041077;23;20242;-85
2021/01/07 02:05:43;;;;;;;6.55;5.80;;;2.80;99.90;;;;;;6040439;23;20185;-85
2021/01/07 02:08:16;;;;;;;7.28;5.35;;;2.70;99.90;;;;;;6040500;23;20273;-83
2021/01/07 02:10:49;;;;;;;6.18;5.57;;;2.70;99.90;;;;;;6040956;23;20178;-84
2021/01/07 02:13:20;;;;;;;6.32;5.75;;;2.70;99.90;;;;;;6040807;23;20169;-83
2021/01/07 02:15:53;;;;;;;7.35;5.43;;;2.70;99.90;;;;;;6040855;23;20162;-83
2021/01/07 02:18:26;;;;;;;7.40;5.93;;;2.70;99.90;;;;;;6040941;23;20201;-83
2021/01/07 02:20:58;;;;;;;5.82;5.30;;;2.70;99.90;;;;;;6040771;23;20174;-83
2021/01/07 02:23:34;;;;;;;6.55;5.63;;;2.70;99.90;;;;;;6040344;23;20163;-84
2021/01/07 02:26:21;;;;;;;6.55;5.95;;;2.60;99.90;;;;;;6040218;23;20611;-84
2021/01/07 02:29:20;;;;;;;;;;;;;;;;;;;;;
2021/01/07 02:31:53;;;;;;;5.78;4.97;;;2.60;99.90;;;;;;5997871;23;20268;-83
2021/01/07 02:34:30;;;;;;;5.25;4.85;;;2.60;99.90;;;;;;6041157;23;20631;-84
2021/01/07 02:37:01;;;;;;;6.50;4.80;;;2.60;99.90;;;;;;6043821;23;20506;-84
2021/01/07 02:39:37;;;;;;;5.70;5.20;;;2.60;99.90;;;;;;6044566;23;20248;-84
2021/01/07 02:42:03;;;;;;;6.07;5.43;;;2.60;99.90;;;;;;6043830;23;20168;-83
2021/01/07 02:44:31;;;;;;;4.80;4.30;;;2.60;99.90;;;;;;6044390;23;20178;-84
2021/01/07 02:46:57;;;;;;;4.75;4.30;;;2.60;99.90;;;;;;6044621;23;20216;-85
2021/01/07 02:49:25;;;;;;;6.25;4.93;;;2.60;99.90;;;;;;6044752;23;20182;-83
2021/01/07 02:51:54;;;;;;;6.43;5.40;;;2.60;99.90;;;;;;6044228;23;20189;-84
2021/01/07 02:54:33;;;;;;;4.70;4.30;;;2.60;99.90;;;;;;6043477;23;20186;-83
2021/01/07 02:57:00;;;;;;;5.35;4.95;;;2.60;99.90;;;;;;6043770;23;20201;-83
2021/01/07 02:59:35;;;;;;;5.45;4.65;;;2.60;99.90;;;;;;6044258;23;20558;-84
2021/01/07 03:02:02;;;;;;;4.95;4.57;;;2.50;99.90;;;;;;6044343;23;20519;-85
2021/01/07 03:04:33;;;;;;;4.50;4.07;;;2.50;99.90;;;;;;6043614;23;20623;-83
2021/01/07 03:07:04;;;;;;;5.03;4.63;;;2.50;99.90;;;;;;6044224;23;20593;-84
2021/01/07 03:09:32;;;;;;;5.15;4.05;;;2.50;99.90;;;;;;6044485;23;20170;-84
2021/01/07 03:12:10;;;;;;;4.57;4.28;;;2.50;99.90;;;;;;6043563;23;20178;-82
2021/01/07 03:14:36;;;;;;;4.82;4.47;;;2.50;99.90;;;;;;6044650;23;20787;-84
2021/01/07 03:17:04;;;;;;;6.70;5.85;;;2.40;99.90;;;;;;6044467;23;20276;-83
2021/01/07 03:19:43;;;;;;;6.25;5.72;;;2.40;99.90;;;;;;6044347;23;20182;-83
2021/01/07 03:22:14;;;;;;;5.97;4.85;;;2.40;99.90;;;;;;6044705;23;20173;-83
2021/01/07 03:24:41;;;;;;;5.30;4.80;;;2.40;99.90;;;;;;6044251;23;20253;-83
2021/01/07 03:27:11;;;;;;;5.80;5.20;;;2.40;99.90;;;;;;6043935;23;20238;-83
2021/01/07 03:29:37;;;;;;;5.13;4.63;;;2.40;99.90;;;;;;6043742;23;20659;-84
2021/01/07 03:32:05;;;;;;;5.38;4.88;;;2.40;99.90;;;;;;6043565;23;20186;-84
2021/01/07 03:34:33;;;;;;;5.53;4.78;;;2.40;99.90;;;;;;6043779;23;20212;-84
2021/01/07 03:36:59;;;;;;;5.35;4.63;;;2.40;99.90;;;;;;6043824;23;20248;-83
2021/01/07 03:39:27;;;;;;;4.78;4.38;;;2.40;99.90;;;;;;6044100;23;20185;-83
2021/01/07 03:41:59;;;;;;;6.03;5.20;;;2.40;99.90;;;;;;6043791;23;20210;-84
2021/01/07 03:44:33;;;;;;;6.07;5.43;;;2.40;99.90;;;;;;6044597;23;20315;-83
2021/01/07 03:47:08;;;;;;;5.65;5.10;;;2.40;99.90;;;;;;6043829;23;20202;-84
2021/01/07 03:49:40;;;;;;;5.40;5.00;;;2.40;99.90;;;;;;6041176;23;20158;-84
2021/01/07 03:52:08;;;;;;;5.50;5.00;;;2.40;99.90;;;;;;6039915;23;20163;-84
2021/01/07 03:54:39;;;;;;;6.88;5.35;;;2.40;99.90;;;;;;6041436;23;20186;-84
2021/01/07 04:00:15;;;;;;;7.90;6.38;;;2.40;99.90;;;;;;6038605;23;20175;-84
2021/01/07 04:03:16;;;;;;;6.75;6.03;;;2.40;99.90;;;;;;5976806;23;20190;-84
2021/01/07 04:08:28;;;;;;;6.75;5.78;;;2.40;99.90;;;;;;6000146;23;20265;-84
2021/01/07 04:10:55;;;;;;;7.32;6.63;;;2.40;99.90;;;;;;6039759;23;20181;-84
2021/01/07 04:13:29;;;;;;;7.75;6.68;;;2.40;99.90;;;;;;6039480;23;20650;-84
2021/01/07 04:15:58;;;;;;;7.38;6.57;;;2.40;99.90;;;;;;6040278;23;20510;-85
2021/01/07 04:18:45;;;;;;;6.55;5.88;;;2.40;99.90;;;;;;6039951;23;20248;-84
2021/01/07 04:21:44;;;;;;;8.75;6.32;;;2.30;99.90;;;;;;6032578;23;20360;-84
2021/01/07 04:24:25;;;;;;;;;;;;;;;;;;;;;
2021/01/07 04:27:00;;;;;;;6.75;5.70;;;2.30;99.90;;;;;;6041620;23;20269;-84
2021/01/07 04:29:49;;;;;;;7.40;6.82;;;2.30;99.90;;;;;;6042037;23;20225;-85
2021/01/07 04:32:16;;;;;;;8.80;7.22;;;2.30;99.90;;;;;;6008909;23;20185;-84
2021/01/07 04:34:56;;;;;;;7.75;6.95;;;2.30;99.90;;;;;;6041921;23;20186;-84
2021/01/07 04:37:48;;;;;;;7.85;6.88;;;2.30;99.90;;;;;;6041762;23;20298;-84
2021/01/07 04:41:19;;;;;;;;;;;;;;;;;;;;;
2021/01/07 04:43:53;;;;;;;6.95;5.93;;;2.30;99.90;;;;;;5956360;23;20256;-84
2021/01/07 04:46:25;;;;;;;7.82;7.10;;;2.30;99.90;;;;;;6042590;23;20252;-84
2021/01/07 04:48:52;;;;;;;11.27;9.18;;;2.30;99.90;;;;;;6042145;23;20277;-84
2021/01/07 04:51:24;;;;;;;9.55;6.93;;;2.30;99.90;;;;;;6042705;23;20182;-84
2021/01/07 04:53:59;;;;;;;9.25;7.78;;;2.30;99.90;;;;;;6042541;23;20177;-84
2021/01/07 04:56:36;;;;;;;9.07;7.20;;;2.30;99.90;;;;;;6042198;23;20167;-84
2021/01/07 04:59:05;;;;;;;10.70;8.13;;;2.30;99.90;;;;;;6040992;23;20192;-84
2021/01/07 05:01:48;;;;;;;;;;;;;;;;;;;;;
2021/01/07 05:04:31;;;;;;;9.80;8.80;;;2.40;99.90;;;;;;6041440;23;20182;-84
2021/01/07 05:07:08;;;;;;;10.50;8.95;;;2.40;99.90;;;;;;6041378;23;20206;-84
2021/01/07 05:09:57;;;;;;;8.95;8.05;;;2.30;99.90;;;;;;6041561;23;20189;-83
2021/01/07 05:15:48;;;;;;;;;;;;;;;;;;;;;
2021/01/07 05:18:25;;;;;;;9.07;7.28;;;2.30;99.90;;;;;;6034033;23;20272;-84
2021/01/07 05:21:03;;;;;;;10.15;7.47;;;2.30;99.90;;;;;;6041179;23;20229;-84
2021/01/07 05:23:45;;;;;;;9.65;8.20;;;2.20;99.90;;;;;;6040415;23;20182;-84
2021/01/07 05:26:19;;;;;;;8.45;7.25;;;2.30;99.90;;;;;;6041587;23;20170;-84
2021/01/07 05:29:22;;;;;;;10.25;7.72;;;2.30;99.90;;;;;;6042179;23;20220;-84
2021/01/07 05:34:54;;;;;;;11.20;9.05;;;2.30;99.90;;;;;;6027894;23;20182;-83
2021/01/07 05:37:36;;;;;;;;;;;;;;;;;;;;;
2021/01/07 05:41:06;;;;;;;;;;;;;;;;;;;;;
2021/01/07 05:43:34;;;;;;;12.02;9.05;;;2.30;99.90;;;;;;5820721;24;20275;-84
2021/01/07 05:49:38;;;;;;;9.25;7.68;;;2.30;99.90;;;;;;6041242;23;20633;-84
2021/01/07 05:52:32;;;;;;;9.38;7.80;;;2.30;99.90;;;;;;6042786;23;20169;-85
2021/01/07 05:55:15;;;;;;;11.68;7.95;;;2.30;99.90;;;;;;6045960;23;20189;-84
2021/01/07 05:57:57;;;;;;;9.93;8.27;;;2.30;99.90;;;;;;6042889;23;20198;-84
2021/01/07 06:00:46;;;;;;;12.98;8.98;;;2.30;99.90;;;;;;6040964;23;20250;-83
2021/01/07 06:03:35;;;;;;;9.30;8.30;;;2.30;99.90;;;;;;5926067;24;20184;-84
2021/01/07 06:10:04;;;;;;;;;;;;;;;;;;;;;
2021/01/07 06:13:15;;;;;;;;;;;;;;;;;;;;;
2021/01/07 06:15:48;;;;;;;10.23;8.40;;;2.30;99.90;;;;;;6036869;23;20253;-85
2021/01/07 06:18:33;;;;;;;8.80;7.90;;;2.30;99.90;;;;;;6046031;23;20206;-84
2021/01/07 06:21:08;;;;;;;12.95;9.50;;;2.30;99.90;;;;;;6044326;23;20210;-84
2021/01/07 06:23:58;;;;;;;10.85;8.68;;;2.30;99.90;;;;;;6045464;23;20607;-84
2021/01/07 06:26:53;;;;;;;12.30;9.40;;;2.30;99.90;;;;;;6045188;23;20213;-84
2021/01/07 06:29:39;;;;;;;13.32;9.65;;;2.20;99.90;;;;;;6044466;23;20170;-84
2021/01/07 06:32:07;;;;;;;11.38;9.55;;;2.20;99.90;;;;;;6045806;23;20553;-83
2021/01/07 06:34:56;;;;;;;;;;;;;;;;;;;;;
2021/01/07 06:37:47;;;;;;;;;;;;;;;;;;;;;
2021/01/07 06:40:27;;;;;;;13.20;9.57;;;2.20;99.90;;;;;;6042088;23;20217;-85
2021/01/07 06:43:13;;;;;;;;;;;;;;;;;;;;;
2021/01/07 06:45:50;;;;;;;12.15;8.95;;;2.30;99.90;;;;;;6035774;23;20257;-84
2021/01/07 06:48:37;;;;;;;14.40;11.05;;;2.30;99.90;;;;;;6042998;23;20225;-84
2021/01/07 06:51:30;;;;;;;14.77;10.77;;;2.30;99.90;;;;;;6044662;23;20313;-84
2021/01/07 06:57:05;;;;;;;12.75;9.32;;;2.30;99.90;;;;;;6040217;23;20690;-84
2021/01/07 06:59:34;;;;;;;10.70;9.55;;;2.30;99.90;;;;;;6043637;23;20162;-84
2021/01/07 07:02:23;;;;;;;13.88;10.23;;;2.30;99.90;;;;;;6043490;23;20209;-83
2021/01/07 07:08:45;;;;;;;14.02;10.68;;;2.30;99.90;;;;;;5954843;24;20212;-84
2021/01/07 07:18:22;;;;;;;;;;;;;;;;;;;;;
2021/01/07 07:21:29;;;;;;;13.45;11.55;;;2.40;99.90;;;;;;5948229;24;20211;-84
2021/01/07 07:27:11;;;;;;;15.98;10.50;;;2.40;99.90;;;;;;5912652;24;20751;-84
2021/01/07 07:52:53;;;;;;;10.93;8.65;;;2.40;99.90;;;;;;5822452;24;20190;-85
2021/01/07 07:55:19;;;;;;;14.68;9.52;;;2.40;99.90;;;;;;5861826;24;20190;-83
2021/01/07 07:57:46;;;;;;;11.27;9.75;;;2.50;99.90;;;;;;5940532;24;20268;-82
2021/01/07 08:00:14;;;;;;;14.73;10.60;;;2.50;99.90;;;;;;6048663;23;20725;-82
2021/01/07 08:02:50;;;;;;;13.32;10.13;;;2.50;99.90;;;;;;6051547;23;20186;-82
2021/01/07 08:05:26;;;;;;;15.50;9.98;;;2.50;99.90;;;;;;6050626;23;20177;-82
2021/01/07 08:08:01;;;;;;;13.30;10.82;;;2.50;99.90;;;;;;6051761;23;20206;-82
2021/01/07 08:10:27;;;;;;;15.10;10.68;;;2.60;99.90;;;;;;6052754;23;20176;-81
2021/01/07 08:12:54;;;;;;;13.25;10.77;;;2.60;99.90;;;;;;6049911;23;20194;-82
2021/01/07 08:15:27;;;;;;;13.32;10.27;;;2.60;99.90;;;;;;6049703;23;20182;-81
2021/01/07 08:17:53;;;;;;;11.73;8.98;;;2.60;99.90;;;;;;6049739;23;20263;-81
2021/01/07 08:21:04;;;;;;;13.13;10.50;;;2.70;99.90;;;;;;6048959;23;20193;-82
2021/01/07 08:23:34;;;;;;;9.45;8.40;;;2.60;99.90;;;;;;6050711;23;20668;-81
2021/01/07 08:26:01;;;;;;;14.25;11.25;;;2.60;99.90;;;;;;6048911;23;20521;-82
2021/01/07 08:28:33;;;;;;;10.18;8.07;;;2.60;99.90;;;;;;6049137;23;20228;-82
2021/01/07 08:31:11;;;;;;;12.77;9.00;;;2.60;99.90;;;;;;6049786;23;20480;-82
2021/01/07 08:33:39;;;;;;;12.15;10.27;;;2.60;99.90;;;;;;6050073;23;20174;-83
2021/01/07 08:36:20;;;;;;;16.60;9.93;;;2.70;99.90;;;;;;6049830;23;20522;-82
2021/01/07 08:38:50;;;;;;;11.02;9.90;;;2.60;99.90;;;;;;6048813;23;20202;-83
2021/01/07 08:41:17;;;;;;;11.10;9.35;;;2.60;99.90;;;;;;6048910;23;20194;-82
2021/01/07 08:43:46;;;;;;;15.15;11.73;;;2.60;99.90;;;;;;6048376;23;20189;-83
2021/01/07 08:46:14;;;;;;;13.43;9.70;;;2.60;99.90;;;;;;6048341;23;20206;-82
2021/01/07 08:48:40;;;;;;;14.32;10.52;;;2.70;99.90;;;;;;6048458;23;20206;-82
2021/01/07 08:51:18;;;;;;;15.43;11.82;;;2.70;99.90;;;;;;6047979;23;20188;-82
2021/01/07 08:53:49;;;;;;;13.27;11.95;;;2.80;99.90;;;;;;6047826;23;20192;-83
2021/01/07 08:56:32;;;;;;;10.52;9.00;;;2.90;99.90;;;;;;6044711;23;20690;-83
2021/01/07 08:59:32;;;;;;;10.73;9.63;;;2.90;99.90;;;;;;6047766;23;20202;-83
2021/01/07 09:02:00;;;;;;;14.68;11.13;;;3.00;99.90;;;;;;6047571;23;20641;-82
2021/01/07 09:04:32;;;;;;;15.77;11.57;;;3.00;99.90;;;;;;6047814;23;20187;-82
2021/01/07 09:07:00;;;;;;;13.10;10.50;;;3.10;99.90;;;;;;6047175;23;20206;-83
2021/01/07 09:09:38;;;;;;;12.73;10.05;;;3.10;99.90;;;;;;6047442;23;20182;-83
2021/01/07 09:12:08;;;;;;;16.75;10.52;;;3.20;99.90;;;;;;6049731;23;20623;-82
2021/01/07 09:15:00;;;;;;;13.38;11.35;;;3.20;99.90;;;;;;6048519;23;20766;-82
2021/01/07 09:17:38;;;;;;;17.73;11.48;;;3.30;99.90;;;;;;6035225;23;20225;-82
2021/01/07 09:20:06;;;;;;;16.15;12.60;;;3.30;99.90;;;;;;6049059;23;20244;-82
2021/01/07 09:22:32;;;;;;;13.95;10.82;;;3.40;99.90;;;;;;6048342;23;20219;-82
2021/01/07 09:25:01;;;;;;;10.75;9.65;;;3.50;99.90;;;;;;6046769;23;20198;-82
2021/01/07 09:27:27;;;;;;;11.25;10.05;;;3.50;99.90;;;;;;6050015;23;20210;-82
2021/01/07 09:29:53;;;;;;;12.77;11.05;;;3.60;99.90;;;;;;6049634;23;20186;-83
2021/01/07 09:32:20;;;;;;;12.68;11.20;;;3.60;99.90;;;;;;6052572;23;20186;-82
2021/01/07 09:34:47;;;;;;;17.65;10.15;;;3.70;99.90;;;;;;6049291;23;20191;-79
2021/01/07 09:37:15;;;;;;;12.18;9.02;;;3.70;99.90;;;;;;6041458;23;20717;-80
2021/01/07 09:39:42;;;;;;;11.45;9.65;;;3.70;99.90;;;;;;6041500;23;20188;-77
2021/01/07 09:42:10;;;;;;;12.70;9.27;;;3.80;99.90;;;;;;6043493;23;20187;-80
2021/01/07 09:44:37;;;;;;;11.05;9.80;;;3.80;99.90;;;;;;6041693;23;20237;-79
2021/01/07 09:47:04;;;;;;;10.63;8.80;;;3.80;99.90;;;;;;6041719;23;20204;-80
2021/01/07 09:49:31;;;;;;;16.05;10.48;;;3.80;99.90;;;;;;6041828;23;20520;-79
2021/01/07 09:51:59;;;;;;;11.75;9.98;;;3.90;99.90;;;;;;6041561;23;20185;-79
2021/01/07 09:54:25;;;;;;;14.18;10.63;;;3.90;99.90;;;;;;6040578;23;20235;-79
2021/01/07 09:56:52;;;;;;;12.98;9.93;;;4.00;99.90;;;;;;6041554;23;20454;-79
2021/01/07 09:59:21;;;;;;;13.02;9.55;;;4.00;99.90;;;;;;6041715;23;20183;-80
2021/01/07 10:01:47;;;;;;;13.52;12.02;;;4.00;99.90;;;;;;6040652;23;20186;-79
2021/01/07 10:04:14;;;;;;;19.52;13.60;;;4.00;99.90;;;;;;6042451;23;20182;-79
2021/01/07 10:06:41;;;;;;;15.50;13.02;;;4.10;99.90;;;;;;6041893;23;20552;-79
2021/01/07 10:09:07;;;;;;;12.90;10.60;;;4.10;99.90;;;;;;6042521;23;20509;-79
2021/01/07 10:11:33;;;;;;;16.38;12.23;;;4.10;99.90;;;;;;6043371;23;20183;-79
2021/01/07 10:13:59;;;;;;;15.73;14.05;;;4.20;99.90;;;;;;6042690;23;20186;-78
2021/01/07 10:16:26;;;;;;;17.40;14.23;;;4.10;99.90;;;;;;6043121;23;20190;-79
2021/01/07 10:18:54;;;;;;;19.77;15.52;;;4.10;99.90;;;;;;6042936;23;20207;-79
2021/01/07 10:21:23;;;;;;;14.50;13.00;;;4.10;99.90;;;;;;6042014;23;20599;-79
2021/01/07 10:23:50;;;;;;;15.00;9.43;;;4.10;99.90;;;;;;6042797;23;20186;-79
2021/01/07 10:26:17;;;;;;;13.73;11.43;;;4.10;99.90;;;;;;6042658;23;20193;-78
2021/01/07 10:28:45;;;;;;;16.23;11.77;;;4.10;99.90;;;;;;6043111;23;20229;-79
2021/01/07 10:31:12;;;;;;;16.48;13.88;;;4.20;99.90;;;;;;6042189;23;20640;-79
2021/01/07 10:33:41;;;;;;;17.92;12.98;;;4.20;99.90;;;;;;6041499;23;20235;-79
2021/01/07 10:36:08;;;;;;;14.90;12.07;;;4.20;99.90;;;;;;6041753;23;20255;-79
2021/01/07 10:38:36;;;;;;;15.02;12.93;;;4.30;99.90;;;;;;6040250;23;20198;-79
2021/01/07 10:41:05;;;;;;;15.05;12.32;;;4.30;99.90;;;;;;6041859;23;20761;-79
2021/01/07 10:43:32;;;;;;;12.20;10.27;;;4.30;99.90;;;;;;6041062;23;20198;-79
2021/01/07 10:45:58;;;;;;;11.80;10.02;;;4.40;99.90;;;;;;6040630;23;20186;-79
2021/01/07 10:48:25;;;;;;;13.68;11.73;;;4.40;99.90;;;;;;6041138;23;20557;-80
2021/01/07 10:50:53;;;;;;;10.05;9.05;;;4.40;99.90;;;;;;6040958;23;20214;-79
2021/01/07 10:53:51;;;;;;;11.55;10.13;;;4.50;99.90;;;;;;6041024;23;20225;-78
2021/01/07 10:56:34;;;;;;;11.38;9.73;;;4.50;99.90;;;;;;6041603;23;20171;-78
2021/01/07 10:59:17;;;;;;;9.95;8.63;;;4.60;99.90;;;;;;6041206;23;20678;-79
2021/01/07 11:01:53;;;;;;;9.70;8.52;;;4.60;99.90;;;;;;6040384;23;20175;-77
2021/01/07 11:04:38;;;;;;;10.15;9.15;;;4.50;99.90;;;;;;6041565;23;20604;-79
2021/01/07 11:07:12;;;;;;;9.82;8.18;;;4.50;99.90;;;;;;6041275;23;20202;-79
2021/01/07 11:09:44;;;;;;;10.02;9.02;;;4.60;99.90;;;;;;6041063;23;20629;-79
2021/01/07 11:12:19;;;;;;;11.38;7.60;;;4.60;99.90;;;;;;6041072;23;20188;-79
2021/01/07 11:14:50;;;;;;;9.85;8.48;;;4.60;99.90;;;;;;6041075;23;20559;-78
2021/01/07 11:17:20;;;;;;;9.80;7.90;;;4.70;99.90;;;;;;6040540;23;20212;-79
2021/01/07 11:19:50;;;;;;;13.35;10.57;;;4.60;99.90;;;;;;6042911;23;20177;-83
2021/01/07 11:22:20;;;;;;;9.32;7.35;;;4.70;99.90;;;;;;6044450;23;20686;-80
2021/01/07 11:24:48;;;;;;;10.48;8.93;;;4.80;99.90;;;;;;6044652;23;20169;-81
2021/01/07 11:27:15;;;;;;;9.30;8.25;;;4.90;99.90;;;;;;6044761;23;20203;-82
2021/01/07 11:29:42;;;;;;;10.43;9.43;;;5.00;99.90;;;;;;6047667;23;20210;-84
2021/01/07 11:32:08;;;;;;;9.13;8.10;;;5.10;99.90;;;;;;6047685;23;20187;-82
2021/01/07 11:34:35;;;;;;;12.85;9.32;;;5.20;99.90;;;;;;6046790;23;20246;-83
2021/01/07 11:37:09;;;;;;;10.07;8.25;;;5.30;99.90;;;;;;6047248;23;20219;-83
2021/01/07 11:39:47;;;;;;;7.45;6.70;;;5.40;99.90;;;;;;6046770;23;20171;-82
2021/01/07 11:42:28;;;;;;;8.55;7.63;;;5.60;99.90;;;;;;6046999;23;20201;-84
2021/01/07 11:45:02;;;;;;;9.70;8.70;;;5.70;99.90;;;;;;6047375;23;20173;-83
2021/01/07 11:47:33;;;;;;;8.43;7.60;;;5.70;99.90;;;;;;6046884;23;20203;-80
2021/01/07 11:50:02;;;;;;;9.23;8.15;;;5.70;99.90;;;;;;6047291;23;20172;-83
2021/01/07 11:52:31;;;;;;;9.15;8.10;;;5.70;99.90;;;;;;6044614;23;20186;-83
2021/01/07 11:55:00;;;;;;;10.13;8.80;;;5.70;99.90;;;;;;6048214;23;20178;-83
2021/01/07 11:57:27;;;;;;;8.95;7.38;;;5.60;99.90;;;;;;6047135;23;20208;-83
2021/01/07 11:59:55;;;;;;;12.35;9.18;;;5.50;99.90;;;;;;6048039;23;20257;-83
2021/01/07 12:02:21;;;;;;;9.73;8.77;;;5.50;99.90;;;;;;6045882;23;20191;-83
2021/01/07 12:04:50;;;;;;;10.50;9.50;;;5.40;99.90;;;;;;6047638;23;20187;-84
2021/01/07 12:07:30;;;;;;;10.07;9.07;;;5.50;99.90;;;;;;6049066;23;20219;-83
2021/01/07 12:10:01;;;;;;;10.90;9.35;;;5.40;99.90;;;;;;6049853;23;20173;-84
2021/01/07 12:12:35;;;;;;;9.00;8.10;;;5.30;99.90;;;;;;6049876;23;20223;-84
2021/01/07 12:15:03;;;;;;;9.13;8.20;;;5.20;99.90;;;;;;6047078;23;20172;-82
2021/01/07 12:17:29;;;;;;;11.00;8.38;;;5.10;99.90;;;;;;6046884;23;20228;-83
2021/01/07 12:19:59;;;;;;;9.07;7.70;;;5.10;99.90;;;;;;6048157;23;20191;-83
2021/01/07 12:22:25;;;;;;;12.73;8.13;;;5.10;99.90;;;;;;6043244;23;20188;-84
2021/01/07 12:24:52;;;;;;;7.10;5.95;;;5.10;99.90;;;;;;6041190;23;20229;-84
2021/01/07 12:27:20;;;;;;;9.25;6.65;;;5.00;99.90;;;;;;6043684;23;20214;-82
2021/01/07 12:29:48;;;;;;;6.95;6.25;;;4.90;99.90;;;;;;6046532;23;20221;-84
2021/01/07 12:32:26;;;;;;;7.00;6.35;;;4.70;99.90;;;;;;6041588;23;20174;-83
2021/01/07 12:35:30;;;;;;;10.10;8.35;;;4.70;99.90;;;;;;6046806;23;20163;-83
2021/01/07 12:38:16;;;;;;;10.60;8.50;;;4.70;99.90;;;;;;6049928;23;20207;-84
2021/01/07 12:40:50;;;;;;;9.38;8.38;;;4.60;99.90;;;;;;6048009;23;20212;-84
2021/01/07 12:43:20;;;;;;;11.43;8.40;;;4.60;99.90;;;;;;6047403;23;20622;-83
2021/01/07 12:45:52;;;;;;;8.55;7.75;;;4.70;99.90;;;;;;6046224;23;20187;-83
2021/01/07 12:48:19;;;;;;;12.13;9.48;;;4.70;99.90;;;;;;6046448;23;20207;-83
2021/01/07 12:50:46;;;;;;;12.30;9.77;;;4.70;99.90;;;;;;6045861;23;20194;-82
2021/01/07 12:53:14;;;;;;;12.25;9.30;;;4.80;99.90;;;;;;6045413;23;20186;-84
2021/01/07 12:55:40;;;;;;;10.70;9.18;;;4.70;99.90;;;;;;6046715;23;20192;-83
2021/01/07 12:58:11;;;;;;;11.88;9.25;;;4.70;99.90;;;;;;6043829;23;20540;-82
2021/01/07 13:00:45;;;;;;;10.20;9.20;;;4.70;99.90;;;;;;6045830;23;20226;-84
2021/01/07 13:03:21;;;;;;;10.68;7.97;;;4.70;99.90;;;;;;6045351;23;20169;-83
2021/01/07 13:05:53;;;;;;;11.38;10.18;;;4.70;99.90;;;;;;6048528;23;20298;-84
2021/01/07 13:08:20;;;;;;;8.85;7.78;;;4.70;99.90;;;;;;6043561;23;20207;-84
2021/01/07 13:10:49;;;;;;;10.60;9.32;;;4.80;99.90;;;;;;6047128;23;20243;-84
2021/01/07 13:13:16;;;;;;;11.93;8.95;;;4.70;99.90;;;;;;6046288;23;20232;-83
2021/01/07 13:15:44;;;;;;;9.50;8.25;;;4.70;99.90;;;;;;6046307;23;20182;-81
2021/01/07 13:18:11;;;;;;;10.00;8.60;;;4.60;99.90;;;;;;6046828;23;20209;-83
2021/01/07 13:20:40;;;;;;;12.32;8.30;;;4.50;99.90;;;;;;6047867;23;20511;-83
2021/01/07 13:23:07;;;;;;;13.38;8.52;;;4.40;99.90;;;;;;6043238;23;20187;-83
2021/01/07 13:25:35;;;;;;;12.40;9.73;;;4.40;99.90;;;;;;6045495;23;20209;-85
2021/01/07 13:28:03;;;;;;;13.77;9.60;;;4.40;99.90;;;;;;6047630;23;20652;-84
2021/01/07 13:30:29;;;;;;;11.57;8.75;;;4.40;99.90;;;;;;6041185;23;20187;-83
2021/01/07 13:32:58;;;;;;;12.43;10.00;;;4.40;99.90;;;;;;6042763;23;20194;-83
2021/01/07 13:35:26;;;;;;;12.75;9.43;;;4.30;99.90;;;;;;6046370;23;20518;-82
2021/01/07 13:37:52;;;;;;;10.68;8.45;;;4.30;99.90;;;;;;6046397;23;20211;-83
2021/01/07 13:40:24;;;;;;;12.40;9.75;;;4.20;99.90;;;;;;6046214;23;20188;-83
2021/01/07 13:42:52;;;;;;;10.77;8.48;;;4.10;99.90;;;;;;6042346;23;20172;-84
2021/01/07 13:45:20;;;;;;;9.38;8.20;;;4.10;99.90;;;;;;6045336;23;20186;-82
2021/01/07 13:47:48;;;;;;;9.52;8.00;;;4.10;99.90;;;;;;6045397;23;20206;-82
2021/01/07 13:50:21;;;;;;;11.48;8.90;;;4.10;99.90;;;;;;6047241;23;20559;-82
2021/01/07 13:52:51;;;;;;;9.25;8.35;;;4.10;99.90;;;;;;6045787;23;20203;-83
2021/01/07 13:55:18;;;;;;;11.20;9.05;;;4.20;99.90;;;;;;6043975;23;20170;-81
2021/01/07 13:57:45;;;;;;;10.95;8.77;;;4.20;99.90;;;;;;6044696;23;20205;-79
2021/01/07 14:00:14;;;;;;;11.95;9.75;;;4.10;99.90;;;;;;6045927;23;20245;-81
2021/01/07 14:02:40;;;;;;;11.07;8.52;;;4.00;99.90;;;;;;6044036;23;20182;-82
2021/01/07 14:05:07;;;;;;;11.85;9.20;;;4.00;99.90;;;;;;6045670;23;20183;-82
2021/01/07 14:07:43;;;;;;;11.15;9.63;;;4.10;99.90;;;;;;6045957;23;20206;-82
2021/01/07 14:10:12;;;;;;;11.55;9.25;;;4.10;99.90;;;;;;6048259;23;20177;-82
2021/01/07 14:12:42;;;;;;;12.05;9.23;;;4.00;99.90;;;;;;6048356;23;20253;-81
2021/01/07 14:15:09;;;;;;;14.07;9.63;;;4.10;99.90;;;;;;6045816;23;20182;-83
2021/01/07 14:17:41;;;;;;;10.50;9.32;;;4.00;99.90;;;;;;6046274;23;20209;-80
2021/01/07 14:20:10;;;;;;;11.60;9.00;;;4.00;99.90;;;;;;6046493;23;20167;-81
2021/01/07 14:22:37;;;;;;;9.77;8.60;;;4.00;99.90;;;;;;6045782;23;20234;-82
2021/01/07 14:25:05;;;;;;;11.60;10.23;;;4.00;99.90;;;;;;6045311;23;20185;-82
2021/01/07 14:27:39;;;;;;;14.40;9.38;;;4.00;99.90;;;;;;6043491;23;20206;-82
2021/01/07 14:30:08;;;;;;;11.23;10.13;;;4.00;99.90;;;;;;6046068;23;20177;-80
2021/01/07 14:32:35;;;;;;;11.85;10.70;;;4.00;99.90;;;;;;6045850;23;20188;-83
2021/01/07 14:35:06;;;;;;;12.45;9.98;;;4.00;99.90;;;;;;6048701;23;20186;-83
2021/01/07 14:37:36;;;;;;;10.88;9.73;;;4.00;99.90;;;;;;6046553;23;20218;-84
2021/01/07 14:40:05;;;;;;;12.90;9.02;;;3.90;99.90;;;;;;6045885;23;20196;-81
2021/01/07 14:42:32;;;;;;;10.65;9.52;;;3.80;99.90;;;;;;6045047;23;20186;-83
2021/01/07 14:44:58;;;;;;;9.30;8.32;;;3.70;99.90;;;;;;6046294;23;20183;-83
2021/01/07 14:47:29;;;;;;;8.63;7.55;;;3.70;99.90;;;;;;6046385;23;20202;-82
2021/01/07 14:49:56;;;;;;;10.02;8.27;;;3.70;99.90;;;;;;6047322;23;20196;-83
2021/01/07 14:52:23;;;;;;;10.02;8.98;;;3.60;99.90;;;;;;6046392;23;20256;-83
2021/01/07 14:54:51;;;;;;;12.80;10.80;;;3.60;99.90;;;;;;6046271;23;20275;-82
2021/01/07 14:57:47;;;;;;;12.07;10.10;;;3.60;99.90;;;;;;6045388;23;20202;-85
2021/01/07 15:00:23;;;;;;;13.43;9.90;;;3.60;99.90;;;;;;6041443;23;20261;-84
2021/01/07 15:02:55;;;;;;;11.35;9.43;;;3.60;99.90;;;;;;6041859;23;20197;-82
2021/01/07 15:05:24;;;;;;;11.40;8.88;;;3.60;99.90;;;;;;6044765;23;20228;-81
2021/01/07 15:08:06;;;;;;;10.02;8.90;;;3.50;99.90;;;;;;6044496;23;20239;-81
2021/01/07 15:10:40;;;;;;;13.40;8.90;;;3.50;99.90;;;;;;6045713;23;20722;-81
2021/01/07 15:13:12;;;;;;;10.32;9.23;;;3.40;99.90;;;;;;6045131;23;20178;-81
2021/01/07 15:15:54;;;;;;;14.35;11.30;;;3.30;99.90;;;;;;6045001;23;20171;-79
2021/01/07 15:18:34;;;;;;;10.65;9.60;;;3.30;99.90;;;;;;6044670;23;20205;-80
2021/01/07 15:21:05;;;;;;;13.38;12.07;;;3.20;99.90;;;;;;6046769;23;20613;-81
2021/01/07 15:24:03;;;;;;;11.00;9.50;;;3.20;99.90;;;;;;6046305;23;20189;-82
2021/01/07 15:26:44;;;;;;;12.85;10.80;;;3.10;99.90;;;;;;6042736;23;20185;-81
2021/01/07 15:29:22;;;;;;;12.55;10.65;;;3.10;99.90;;;;;;6046067;23;20196;-81